• Join FlightAware (Why Join?)
  • Login
  • US Flag 
08:50AM EDT


 

Airport Tracker/Info


-or-


 

Live Flight TrackerFlight Track Log ✈ N589H ✈ 28-Mar-2014 ✈ KPIE - CYUL

Flight Track Log - Related Links

Times and Time Zones

All times are in EDT time to prevent confusion due to time zone crossing. See the N589H flight status page for this flight to view local times or setup timezone preferences in your user account.

Time Position Orientation Groundspeed Altitude Reporting Facility
EDT Latitude Longitude Course Direction KTS MPH feet Rate Location/Type
04:31PM 27.9000 -82.6833 360° North 145 167 500  Level Tampa TRACON
04:31PM 27.9000 -82.6833 221° Southwest 149 171 600 1,620 Climbing Tampa TRACON
04:32PM 27.8667 -82.7167 221° Southwest 183 211 2,300 1,860 Climbing Tampa TRACON
04:34PM 27.9453 -82.7281 353° North 213 245 6,200 1,920 Climbing Jacksonville Center
04:35PM 28.0036 -82.7117 14° North 213 245 8,100 1,800 Climbing Jacksonville Center
04:36PM 28.0622 -82.7019 North 213 245 9,900 1,620 Climbing Jacksonville Center
04:37PM 28.1247 -82.7089 354° North 213 245 11,400 1,680 Climbing Jacksonville Center
04:38PM 28.1872 -82.7067 North 219 252 13,300 1,800 Climbing Jacksonville Center
04:39PM 28.2561 -82.6994 North 224 258 15,000 1,620 Climbing Jacksonville Center
04:40PM 28.3250 -82.6969 North 237 273 16,600 1,500 Climbing Jacksonville Center
04:41PM 28.3981 -82.6897 North 250 288 18,000 660 Climbing Jacksonville Center
04:42PM 28.4817 -82.6847 North 276 318 18,000  Level Jacksonville Center
04:43PM 28.5797 -82.6822 North 311 358 18,000 240 Level Jacksonville Center
04:44PM 28.6778 -82.6747 North 338 389 18,500 720 Climbing Jacksonville Center
04:45PM 28.7717 -82.6675 North 343 395 19,500 1,020 Climbing Jacksonville Center
04:46PM 28.8614 -82.6625 North 338 389 20,600 1,080 Climbing Jacksonville Center
04:47PM 28.9511 -82.6553 North 325 374 21,700 1,020 Climbing Jacksonville Center
04:48PM 29.0389 -82.6503 North 319 367 22,700 1,020 Climbing Jacksonville Center
04:49PM 29.1264 -82.6431 North 314 361 23,800 1,020 Climbing Jacksonville Center
04:50PM 29.2100 -82.6381 North 309 356 24,800 1,020 Climbing Jacksonville Center
04:51PM 29.2956 -82.6331 North 304 350 25,900 1,200 Climbing Jacksonville Center
04:52PM 29.3872 -82.6256 North 304 350 27,200 840 Climbing Jacksonville Center
04:53PM 29.4728 -82.6206 North 304 350 27,600 420 Climbing Jacksonville Center
04:54PM 29.5606 -82.6133 North 309 356 28,100 540 Climbing Jacksonville Center
04:55PM 29.6525 -82.6058 North 315 362 28,700 540 Climbing Jacksonville Center
04:56PM 29.7442 -82.6008 North 321 369 29,200 480 Climbing Jacksonville Center
04:57PM 29.8381 -82.5956 North 326 375 29,700 480 Climbing Jacksonville Center
04:58PM 29.9300 -82.5906 North 326 375 30,200 420 Climbing Jacksonville Center
04:59PM 30.0053 -82.5856 North 326 375 30,600 480 Climbing Jacksonville Center
05:00PM 30.1094 -82.5806 North 326 375 31,200 540 Climbing Jacksonville Center
05:01PM 30.2014 -82.5728 North 326 375 31,700 480 Climbing Jacksonville Center
05:02PM 30.2933 -82.5703 North 326 375 32,200 540 Climbing Jacksonville Center
05:03PM 30.3850 -82.5628 North 326 375 32,800 360 Climbing Jacksonville Center
05:04PM 30.4747 -82.5550 North 326 375 33,000 60 Climbing Jacksonville Center
05:05PM 30.5708 -82.5283 13° North 332 382 33,000  Level Jacksonville Center
05:06PM 30.6667 -82.4892 19° North 342 394 33,000  Level Jacksonville Center
05:07PM 30.7628 -82.4503 19° North 354 407 33,000  Level Jacksonville Center
05:08PM 30.8606 -82.4111 19° North 359 413 33,000  Level Jacksonville Center
05:09PM 30.9608 -82.3717 19° North 370 426 33,000  Level Jacksonville Center
05:10PM 31.0608 -82.3300 20° North 370 426 33,000  Level Jacksonville Center
05:11PM 31.1669 -82.2881 19° North 365 420 33,000  Level Jacksonville Center
05:12PM 31.2692 -82.2461 19° North 370 426 33,000  Level Jacksonville Center
05:13PM 31.3672 -82.2039 20° North 370 426 33,000  Level Jacksonville Center
05:14PM 31.4650 -82.1642 19° North 370 426 33,000  Level Jacksonville Center
05:15PM 31.5672 -82.1294 16° North 370 426 33,000  Level Jacksonville Center
05:16PM 31.6650 -82.0822 22° Northeast 373 429 33,000  Level Jacksonville Center
05:17PM 31.7544 -82.0447 20° North 366 421 33,000  Level Jacksonville Center
05:18PM 31.8522 -82.0047 19° North 366 421 33,000  Level Jacksonville Center
05:19PM 31.9606 -81.9597 19° North 366 421 33,000  Level Jacksonville Center
05:20PM 32.0522 -81.9244 18° North 371 427 33,000  Level Jacksonville Center
05:21PM 32.1625 -81.8767 20° North 371 427 33,000  Level Jacksonville Center
05:22PM 32.2603 -81.8361 19° North 376 433 33,000  Level Jacksonville Center
05:23PM 32.3497 -81.7983 20° North 376 433 33,000  Level Jacksonville Center
05:24PM 32.4619 -81.7525 19° North 376 433 33,000  Level Jacksonville Center
05:25PM 32.5597 -81.7094 20° North 381 438 33,000  Level Jacksonville Center
05:26PM 32.6514 -81.6736 18° North 381 438 33,000  Level Jacksonville Center
05:27PM 32.7656 -81.6253 20° North 388 447 33,000  Level Jacksonville Center
05:28PM 32.8653 -81.5817 20° North 382 440 33,000  Level Jacksonville Center
05:29PM 32.9672 -81.5383 20° North 387 445 33,000  Level Jacksonville Center
05:30PM 33.0689 -81.4944 20° North 382 440 33,000  Level Jacksonville Center
05:31PM 33.1750 -81.4508 19° North 388 447 33,000  Level Jacksonville Center
05:32PM 33.2664 -81.4094 21° North 388 447 33,000  Level Jacksonville Center
05:33PM 33.3681 -81.3656 20° North 383 441 33,000  Level Jacksonville Center
05:34PM 33.4719 -81.3239 18° North 383 441 33,000  Level Jacksonville Center
05:35PM 33.5736 -81.2772 21° North 383 441 33,000  Level Jacksonville Center
05:36PM 33.6772 -81.2328 20° North 383 441 33,000  Level Jacksonville Center
05:37PM 33.7894 -81.1858 19° North 383 441 33,000  Level Jacksonville Center
05:38PM 33.8953 -81.1386 20° North 383 441 33,000  Level Jacksonville Center
05:39PM 33.9989 -81.0914 21° North 383 441 33,000  Level Jacksonville Center
05:40PM 34.1025 -81.0492 19° North 383 441 33,000  Level Jacksonville Center
05:41PM 34.2592 -80.9775 21° North 391 450 33,000  Level Atlanta Center
05:42PM 34.3644 -80.9361 18° North 391 450 33,000 -60 Level Atlanta Center
05:43PM 34.4656 -80.8919 20° North 391 450 32,900  Descending Atlanta Center
05:44PM 34.5728 -80.8400 22° Northeast 391 450 33,000  Climbing Atlanta Center
05:45PM 34.6781 -80.7956 19° North 397 457 33,000  Level Atlanta Center
05:46PM 34.7792 -80.7511 20° North 397 457 33,000  Level Atlanta Center
05:47PM 34.8822 -80.7042 20° North 392 451 33,000  Level Atlanta Center
05:48PM 34.9853 -80.6594 20° North 392 451 33,000  Level Atlanta Center
05:49PM 35.0861 -80.6122 21° North 386 444 33,000  Level Atlanta Center
05:50PM 35.1831 -80.5700 20° North 386 444 33,000  Level Atlanta Center
05:51PM 35.2842 -80.5250 20° North 386 444 33,000  Level Atlanta Center
05:52PM 35.3869 -80.4775 21° North 386 444 33,000  Level Atlanta Center
05:53PM 35.4922 -80.4319 19° North 386 444 33,000  Level Atlanta Center
05:54PM 35.5950 -80.3842 21° North 386 444 33,000  Level Atlanta Center
05:55PM 35.6978 -80.3361 21° North 386 444 33,000  Level Atlanta Center
05:56PM 35.7986 -80.2906 20° North 386 444 33,000  Level Atlanta Center
05:57PM 35.9014 -80.2369 23° Northeast 386 444 33,000  Level Atlanta Center
05:59PM 36.1303 -80.1361 20° North 405 466 33,000  Level Washington Center
06:00PM 36.2322 -80.0906 20° North 405 466 33,000  Level Washington Center
06:01PM 36.3406 -80.0400 21° North 405 466 33,000  Level Washington Center
06:02PM 36.4358 -79.9964 20° North 400 460 33,000  Level Washington Center
06:03PM 36.5378 -79.9481 21° North 395 455 33,000  Level Washington Center
06:04PM 36.6439 -79.8994 20° North 395 455 33,000  Level Washington Center
06:05PM 36.7628 -79.8439 21° North 401 461 33,000  Level Washington Center
06:06PM 36.8667 -79.7950 21° North 401 461 33,000  Level Washington Center
06:07PM 36.9728 -79.7464 20° North 396 456 33,000  Level Washington Center
06:08PM 37.0767 -79.6947 22° Northeast 396 456 33,000  Level Washington Center
06:09PM 37.1742 -79.6503 20° North 396 456 33,000  Level Washington Center
06:10PM 37.2781 -79.6011 21° North 396 456 33,000  Level Washington Center
06:11PM 37.3819 -79.5517 21° North 396 456 33,000  Level Washington Center
06:12PM 37.5028 -79.4925 21° North 402 463 33,000  Level Washington Center
06:13PM 37.6067 -79.4400 22° Northeast 397 457 33,000  Level Washington Center
06:14PM 37.7022 -79.3950 20° North 397 457 33,000  Level Washington Center
06:15PM 37.8122 -79.3456 20° North 402 463 33,000  Level Washington Center
06:16PM 37.9158 -79.2953 21° North 402 463 33,000  Level Washington Center
06:17PM 38.0322 -79.2403 20° North 402 463 33,000  Level Washington Center
06:18PM 38.1381 -79.1875 21° North 402 463 33,000  Level Washington Center
06:19PM 38.2461 -79.1372 20° North 402 463 33,000  Level Washington Center
06:20PM 38.3519 -79.0839 22° Northeast 402 463 33,000  Level Washington Center
06:21PM 38.4492 -79.0381 20° North 402 463 33,000  Level Washington Center
06:22PM 38.5531 -78.9792 24° Northeast 402 463 33,000  Level Washington Center
06:23PM 38.6608 -78.9258 21° North 402 463 33,000  Level Washington Center
06:24PM 38.7708 -78.8719 21° North 402 463 33,000  Level Washington Center
06:25PM 38.8783 -78.8208 20° North 407 468 33,000  Level Washington Center
06:27PM 39.1222 -78.6961 22° Northeast 421 484 33,000  Level Cleveland Center
06:28PM 39.2333 -78.6406 21° North 422 486 33,000  Level Cleveland Center
06:29PM 39.3442 -78.5850 21° North 425 489 33,000  Level Cleveland Center
06:31PM 39.4556 -78.5272 22° Northeast 426 490 33,000  Level Cleveland Center
06:32PM 39.5667 -78.4708 21° North 426 490 33,000  Level Cleveland Center
06:33PM 39.6781 -78.4147 21° North 428 493 33,000  Level Cleveland Center
06:34PM 39.8036 -78.3517 21° North 432 497 33,000  Level Cleveland Center
06:35PM 39.9139 -78.2944 22° Northeast 432 497 33,000  Level Cleveland Center
06:36PM 40.0383 -78.2289 22° Northeast 431 496 33,000  Level Cleveland Center
06:37PM 40.1575 -78.1675 21° North 430 495 33,000  Level Cleveland Center
06:38PM 40.2672 -78.1114 21° North 430 495 33,000  Level Cleveland Center
06:39PM 40.3761 -78.0542 22° Northeast 429 494 33,000  Level Cleveland Center
06:40PM 40.4850 -77.9967 22° Northeast 429 494 33,000  Level Cleveland Center
06:40PM 40.5556 -77.9583 22° Northeast 425 489 33,000  Level New York Center
06:41PM 40.6675 -77.9017 21° North 425 489 33,000  Level New York Center
06:42PM 40.7794 -77.8419 22° Northeast 425 489 33,000  Level New York Center
06:43PM 40.8892 -77.7847 22° Northeast 425 489 33,000  Level New York Center
06:44PM 40.9883 -77.7289 23° Northeast 430 495 33,000  Level New York Center
06:45PM 41.0933 -77.6433 32° Northeast 430 495 33,000  Level New York Center
06:46PM 41.1981 -77.5600 31° Northeast 436 502 33,000  Level New York Center
06:47PM 41.3031 -77.4711 32° Northeast 442 509 33,000  Level New York Center
06:48PM 41.4058 -77.3872 31° Northeast 442 509 33,000  Level New York Center
06:49PM 41.5106 -77.3036 31° Northeast 437 503 33,000  Level New York Center
06:50PM 41.6153 -77.2167 32° Northeast 437 503 33,000  Level New York Center
06:51PM 41.7286 -77.1192 33° Northeast 445 512 33,000  Level New York Center
06:52PM 41.8331 -77.0344 31° Northeast 445 512 33,000  Level New York Center
06:53PM 41.8769 -76.9939 35° Northeast 442 509 33,000  Level Cleveland Center
06:55PM 42.0422 -76.8544 32° Northeast 442 509 33,000  Level Cleveland Center
06:56PM 42.1667 -76.7486 32° Northeast 443 510 33,000  Level Cleveland Center
06:57PM 42.2706 -76.6606 32° Northeast 443 510 33,000  Level Cleveland Center
06:58PM 42.3728 -76.5725 32° Northeast 442 509 33,000  Level Cleveland Center
06:59PM 42.4772 -76.4833 32° Northeast 444 511 33,000  Level Cleveland Center
07:00PM 42.5811 -76.3933 33° Northeast 444 511 33,000  Level Cleveland Center
07:01PM 42.7047 -76.2856 33° Northeast 445 512 33,000  Level Cleveland Center
07:02PM 42.8092 -76.1950 32° Northeast 446 513 33,000  Level Cleveland Center
07:03PM 42.9156 -76.1017 33° Northeast 450 518 33,000  Level Cleveland Center
07:04PM 43.0206 -76.0089 33° Northeast 450 518 33,000  Level Cleveland Center
07:05PM 43.1261 -75.9156 33° Northeast 450 518 33,000  Level Cleveland Center
07:06PM 43.2317 -75.8214 33° Northeast 450 518 33,000  Level Cleveland Center
07:07PM 43.3581 -75.7103 33° Northeast 450 518 33,000  Level Cleveland Center
07:08PM 43.4667 -75.6000 36° Northeast 450 518 33,000  Level Montreal Center
07:09PM 43.5667 -75.5000 36° Northeast 450 518 33,000  Level Montreal Center
07:10PM 43.6833 -75.4167 27° Northeast 440 506 33,000  Level Montreal Center
07:11PM 43.7833 -75.3167 36° Northeast 450 518 33,000  Level Montreal Center
07:12PM 43.8833 -75.2333 31° Northeast 440 506 33,000 -120 Level Montreal Center
07:13PM 43.9833 -75.1333 36° Northeast 450 518 32,800 -600 Descending Montreal Center
07:14PM 44.1000 -75.0333 32° Northeast 450 518 31,800 -1,020 Descending Montreal Center
07:15PM 44.2000 -74.9667 26° Northeast 430 495 30,800 -1,020 Descending Montreal Center
07:16PM 44.3000 -74.8667 36° Northeast 420 483 29,800 -960 Descending Montreal Center
07:17PM 44.4000 -74.7667 36° Northeast 410 472 28,900 -960 Descending Montreal Center
07:18PM 44.4833 -74.7000 30° Northeast 400 460 27,900 -1,020 Descending Montreal Center
07:19PM 44.5833 -74.6000 35° Northeast 400 460 26,900 -1,020 Descending Montreal Center
07:20PM 44.6667 -74.5167 35° Northeast 390 449 25,900 -1,020 Descending Montreal Center
07:21PM 44.7500 -74.4167 40° Northeast 390 449 24,900 -960 Descending Montreal Center
07:22PM 44.8333 -74.3333 35° Northeast 380 437 24,000 -1,020 Descending Montreal Center
07:23PM 44.9333 -74.2500 31° Northeast 380 437 22,900 -1,020 Descending Montreal Center
07:24PM 45.0000 -74.1500 47° Northeast 380 437 22,000 -1,020 Descending Montreal Center
07:25PM 45.0833 -74.0500 40° Northeast 360 414 20,900 -1,320 Descending Montreal Center
07:26PM 45.1500 -73.9667 41° Northeast 350 403 19,400 -1,500 Descending Montreal Center
07:27PM 45.2333 -73.8667 40° Northeast 340 391 17,900 -2,100 Descending Montreal Center
07:28PM 45.3000 -73.7833 41° Northeast 330 380 15,300 -2,880 Descending Montreal Center
07:29PM 45.3500 -73.6833 55° Northeast 330 380 12,200 -3,120 Descending Montreal Center
07:30PM 45.4167 -73.5833 46° Northeast 320 368 9,100 -3,000 Descending Montreal Center
07:31PM 45.4833 -73.4833 46° Northeast 310 357 6,200 -2,700 Descending Montreal Center
07:32PM 45.5500 -73.4333 28° Northeast 280 322 3,800 -1,620 Descending Montreal Center
07:33PM 45.5833 -73.5000 306° West 180 207 3,000 -420 Descending Montreal Center
07:34PM 45.5667 -73.5500 245° Southwest 140 161 3,000 -300 Level Montreal Center
07:35PM 45.5500 -73.6000 245° Southwest 150 173 2,500 -660 Descending Montreal Center
07:36PM 45.5167 -73.6167 199° South 130 150 1,700 -720 Descending Montreal Center
07:37PM 45.5000 -73.6667 245° Southwest 120 138 1,100 -720 Descending Montreal Center
07:38PM 45.4667 -73.7000 215° Southwest 120 138 300 -840 Descending Montreal Center